Time;durP1;ratioP1;P1;durP2;ratioP2;P2;SDS_P1;SDS_P2;PMS_P1;PMS_P2;Temp;Humidity;BMP_temperature;BMP_pressure;BME280_temperature;BME280_humidity;BME280_pressure;Samples;Min_cycle;Max_cycle;Signal;HPM_P1;HPM_P2
2022/07/11 00:01:34;;;;;;;2.72;1.20;;;;;;;17.42;78.74;94570.56;5053357;28;20206;-61
2022/07/11 00:03:59;;;;;;;1.55;1.17;;;;;;;17.36;79.57;94546.34;5053136;28;20330;-62
2022/07/11 00:06:25;;;;;;;1.38;0.98;;;;;;;17.33;79.99;94538.97;5053109;28;20655;-62
2022/07/11 00:08:50;;;;;;;1.85;1.23;;;;;;;17.33;79.95;94536.41;5035142;28;20206;-67
2022/07/11 00:11:16;;;;;;;1.65;1.40;;;;;;;17.29;80.02;94548.00;5052842;28;20217;-64
2022/07/11 00:13:41;;;;;;;1.58;1.17;;;;;;;17.25;80.08;94544.19;5053098;28;20636;-62
2022/07/11 00:16:07;;;;;;;2.55;1.33;;;;;;;17.22;79.79;94543.75;5052960;28;20212;-62
2022/07/11 00:18:32;;;;;;;1.65;1.45;;;;;;;17.28;79.98;94543.84;5053101;28;20184;-64
2022/07/11 00:20:58;;;;;;;2.42;1.52;;;;;;;17.26;79.81;94556.06;5052715;28;20251;-65
2022/07/11 00:23:23;;;;;;;2.25;1.30;;;;;;;17.22;79.58;94556.59;5052929;28;20238;-65
2022/07/11 00:25:49;;;;;;;4.70;1.90;;;;;;;17.18;79.97;94555.31;5052887;28;20210;-65
2022/07/11 00:28:14;;;;;;;6.45;1.25;;;;;;;17.14;80.31;94546.38;5034766;28;20236;-60
2022/07/11 00:30:40;;;;;;;1.83;1.35;;;;;;;17.17;80.10;94549.38;5052730;28;20205;-62
2022/07/11 00:33:05;;;;;;;7.05;1.60;;;;;;;17.18;80.25;94545.06;5034961;28;20217;-64
2022/07/11 00:35:31;;;;;;;4.10;1.30;;;;;;;17.22;80.39;94554.81;5052726;28;20235;-65
2022/07/11 00:37:56;;;;;;;1.70;1.20;;;;;;;17.11;79.60;94559.56;5052504;28;20217;-63
2022/07/11 00:40:22;;;;;;;1.42;1.33;;;;;;;16.99;79.94;94553.22;5052499;28;20614;-64
2022/07/11 00:42:47;;;;;;;1.20;1.10;;;;;;;16.97;80.75;94547.47;5052789;28;20232;-62
2022/07/11 00:45:12;;;;;;;1.83;1.00;;;;;;;16.94;80.06;94558.88;5052542;28;20181;-60
2022/07/11 00:47:38;;;;;;;1.42;1.33;;;;;;;16.93;80.49;94543.66;5034357;28;20227;-65
2022/07/11 00:50:04;;;;;;;1.38;1.27;;;;;;;16.92;80.96;94531.75;5052370;28;20208;-62
2022/07/11 00:52:29;;;;;;;1.60;1.30;;;;;;;16.94;81.17;94542.66;5052403;28;20252;-66
2022/07/11 00:54:56;;;;;;;1.30;1.17;;;;;;;16.94;80.75;94547.78;5052399;28;20655;-61
2022/07/11 00:57:22;;;;;;;1.42;1.13;;;;;;;16.87;81.41;94531.50;5052244;28;20767;-63
2022/07/11 00:59:48;;;;;;;1.52;1.17;;;;;;;16.84;81.74;94532.63;5052345;28;20220;-63
2022/07/11 01:02:14;;;;;;;2.38;1.55;;;;;;;16.77;82.25;94524.78;5052455;28;20225;-60
2022/07/11 01:04:39;;;;;;;1.25;1.02;;;;;;;16.80;82.43;94523.66;5034363;28;20190;-62
2022/07/11 01:07:04;;;;;;;6.05;1.60;;;;;;;16.72;82.67;94524.50;5052465;28;20205;-64
2022/07/11 01:09:31;;;;;;;1.30;1.20;;;;;;;16.68;83.25;94504.47;5051449;28;20240;-60
2022/07/11 01:11:57;;;;;;;1.52;1.40;;;;;;;16.70;83.16;94505.88;5052326;28;20213;-62
2022/07/11 01:14:23;;;;;;;1.50;1.40;;;;;;;16.68;83.01;94504.47;5034503;28;20658;-62
2022/07/11 01:16:51;;;;;;;1.08;1.08;;;;;;;16.71;83.53;94496.44;5051973;28;20642;-63
2022/07/11 01:19:17;;;;;;;4.28;1.30;;;;;;;16.69;83.04;94512.00;5051852;28;20659;-61
2022/07/11 01:21:46;;;;;;;1.35;1.30;;;;;;;16.71;83.08;94512.63;5052026;28;20232;-60
2022/07/11 01:24:11;;;;;;;2.15;1.67;;;;;;;16.75;82.81;94526.72;5033585;28;20186;-61
2022/07/11 01:26:37;;;;;;;2.72;1.30;;;;;;;16.70;82.74;94518.72;5051782;28;20210;-61
2022/07/11 01:29:08;;;;;;;1.50;1.20;;;;;;;16.71;83.23;94506.69;5051886;28;20347;-63
2022/07/11 01:31:34;;;;;;;1.35;1.13;;;;;;;16.66;82.95;94514.91;5051997;28;20699;-61
2022/07/11 01:34:00;;;;;;;1.40;1.30;;;;;;;16.65;83.25;94500.47;5033823;28;20185;-63
2022/07/11 01:36:26;;;;;;;1.20;1.10;;;;;;;16.60;83.32;94507.09;5051764;28;20736;-62
2022/07/11 01:38:51;;;;;;;2.95;1.25;;;;;;;16.58;83.61;94506.47;5051766;28;20204;-62
2022/07/11 01:41:16;;;;;;;1.48;1.20;;;;;;;16.57;82.81;94510.00;5051600;28;20304;-65
2022/07/11 01:43:42;;;;;;;2.13;1.17;;;;;;;16.56;82.87;94514.31;5051621;28;20674;-60
2022/07/11 01:46:07;;;;;;;1.73;1.45;;;;;;;16.49;83.21;94504.91;5051452;28;20200;-61
2022/07/11 01:48:33;;;;;;;2.30;1.00;;;;;;;16.46;83.09;94500.09;5033580;28;20247;-64
2022/07/11 01:50:58;;;;;;;7.10;4.82;;;;;;;16.50;82.87;94512.44;5051847;28;20567;-63
2022/07/11 01:53:24;;;;;;;4.82;3.70;;;;;;;16.48;83.04;94508.44;5051704;28;20213;-66
2022/07/11 01:55:50;;;;;;;3.08;2.78;;;;;;;16.49;83.30;94513.41;5051574;28;20674;-66
2022/07/11 01:58:16;;;;;;;4.60;1.42;;;;;;;16.46;82.88;94520.63;5051324;28;20220;-62
2022/07/11 02:00:42;;;;;;;2.13;1.30;;;;;;;16.46;82.65;94521.41;5058436;22;20216;-64
2022/07/11 02:03:08;;;;;;;1.63;1.40;;;;;;;16.49;83.69;94510.84;5031630;28;20253;-66
2022/07/11 02:05:34;;;;;;;1.42;1.10;;;;;;;16.49;83.03;94525.44;5031762;28;20210;-66
2022/07/11 02:08:11;;;;;;;1.85;1.15;;;;;;;16.43;82.72;94529.44;5031512;28;20308;-66
2022/07/11 02:10:39;;;;;;;2.05;1.13;;;;;;;16.37;83.03;94517.28;5031567;28;20214;-63
2022/07/11 02:13:04;;;;;;;2.00;1.17;;;;;;;16.38;83.25;94528.38;5030531;28;20625;-61
2022/07/11 02:15:30;;;;;;;3.38;1.27;;;;;;;16.37;83.30;94525.00;5031518;28;20244;-62
2022/07/11 02:17:56;;;;;;;1.77;1.50;;;;;;;16.29;84.16;94509.63;5031381;28;20719;-61
2022/07/11 02:20:22;;;;;;;3.33;0.90;;;;;;;16.30;84.04;94516.34;5032974;28;20198;-60
2022/07/11 02:22:48;;;;;;;1.60;1.02;;;;;;;16.29;84.04;94519.91;5035232;28;20233;-62
2022/07/11 02:25:14;;;;;;;5.85;1.55;;;;;;;16.23;84.28;94512.88;5035596;28;20220;-63
2022/07/11 02:27:39;;;;;;;4.07;3.22;;;;;;;16.14;84.47;94515.66;5035079;28;20631;-62
2022/07/11 02:30:05;;;;;;;12.98;10.10;;;;;;;16.20;84.58;94515.75;5035160;28;20188;-66
2022/07/11 02:32:31;;;;;;;9.63;6.35;;;;;;;16.17;84.67;94515.31;5034927;28;20202;-63
2022/07/11 02:34:56;;;;;;;1.20;1.10;;;;;;;16.11;84.50;94518.53;5035029;28;20191;-63
2022/07/11 02:37:22;;;;;;;1.35;1.25;;;;;;;16.13;84.44;94519.97;5034848;28;20621;-64
2022/07/11 02:39:47;;;;;;;2.45;1.00;;;;;;;16.09;84.78;94523.84;5035044;28;20277;-63
2022/07/11 02:42:13;;;;;;;1.27;1.00;;;;;;;16.08;84.88;94519.66;5034815;28;20206;-64
2022/07/11 02:44:39;;;;;;;4.00;2.67;;;;;;;16.02;85.25;94512.63;5034717;28;20667;-66
2022/07/11 02:47:04;;;;;;;5.50;2.05;;;;;;;16.09;84.80;94526.41;5017084;28;20210;-65
2022/07/11 02:49:30;;;;;;;3.53;2.50;;;;;;;16.04;85.76;94515.81;5016891;28;20210;-63
2022/07/11 02:51:56;;;;;;;3.67;1.48;;;;;;;16.01;85.72;94517.94;5034696;28;20691;-66
2022/07/11 02:54:22;;;;;;;3.20;1.15;;;;;;;16.02;85.49;94511.84;5016657;28;20201;-66
2022/07/11 02:56:47;;;;;;;1.63;1.20;;;;;;;15.96;85.81;94508.16;5034389;28;20214;-62
2022/07/11 02:59:13;;;;;;;1.88;1.10;;;;;;;15.90;85.90;94509.63;5034424;28;20623;-62
2022/07/11 03:01:41;;;;;;;1.30;1.10;;;;;;;15.85;86.19;94511.09;5034250;28;20206;-61
2022/07/11 03:04:07;;;;;;;2.75;1.05;;;;;;;15.79;86.60;94502.31;5016632;28;20570;-64
2022/07/11 03:06:32;;;;;;;2.47;1.02;;;;;;;15.78;87.07;94520.41;5034109;28;20293;-63
2022/07/11 03:08:58;;;;;;;1.98;1.02;;;;;;;15.75;87.22;94511.28;5016355;28;20661;-64
2022/07/11 03:11:23;;;;;;;1.33;1.30;;;;;;;15.76;87.20;94512.06;5034302;28;20225;-60
2022/07/11 03:13:48;;;;;;;2.25;1.40;;;;;;;15.67;87.50;94506.19;5034299;28;20214;-63
2022/07/11 03:16:14;;;;;;;1.75;1.17;;;;;;;15.69;87.55;94509.41;5034243;28;20308;-61
2022/07/11 03:18:39;;;;;;;1.92;1.05;;;;;;;15.68;87.19;94517.22;5034087;28;20182;-61
2022/07/11 03:21:05;;;;;;;2.38;1.27;;;;;;;15.68;87.36;94519.78;5016469;28;20281;-62
2022/07/11 03:23:30;;;;;;;1.45;1.20;;;;;;;15.76;86.92;94533.38;5034129;28;20725;-62
2022/07/11 03:25:55;;;;;;;1.20;1.10;;;;;;;15.79;86.92;94530.50;5034443;28;20260;-61
2022/07/11 03:28:21;;;;;;;3.90;1.58;;;;;;;15.80;87.03;94529.53;5033859;28;20321;-64
2022/07/11 03:30:46;;;;;;;3.30;1.02;;;;;;;15.86;86.10;94551.94;5034341;28;20201;-59
2022/07/11 03:33:12;;;;;;;2.47;1.20;;;;;;;16.29;100.00;94514.78;5033099;28;20221;-63
2022/07/11 03:35:43;;;;;;;1.38;1.27;;;;;;;17.23;100.00;94529.94;5033907;28;20225;-62
2022/07/11 03:38:10;;;;;;;3.78;1.00;;;;;;;17.81;90.20;94570.41;5033573;28;20268;-60
2022/07/11 03:40:36;;;;;;;2.40;1.05;;;;;;;17.69;85.72;94610.38;5033562;28;20198;-64
2022/07/11 03:43:01;;;;;;;3.22;1.30;;;;;;;17.39;79.49;94704.56;5015844;28;20216;-62
2022/07/11 03:45:27;;;;;;;3.95;1.30;;;;;;;16.94;80.33;94678.78;5033624;28;20205;-62
2022/07/11 03:47:53;;;;;;;3.53;1.38;;;;;;;16.78;81.46;94641.94;5033622;28;20263;-66
2022/07/11 03:50:19;;;;;;;1.60;1.30;;;;;;;16.52;82.40;94633.69;5033546;28;20537;-62
2022/07/11 03:52:45;;;;;;;2.05;1.02;;;;;;;16.36;83.18;94622.66;5033494;28;20293;-64
2022/07/11 03:55:10;;;;;;;1.27;1.20;;;;;;;16.39;83.35;94642.84;5033579;28;20202;-62
2022/07/11 03:57:36;;;;;;;1.73;1.40;;;;;;;16.28;84.37;94620.13;5033116;28;20206;-62
2022/07/11 04:00:05;;;;;;;1.40;1.30;;;;;;;16.23;84.46;94612.91;5033206;28;20285;-62
2022/07/11 04:02:31;;;;;;;1.70;1.60;;;;;;;16.31;85.22;94605.19;5033195;28;20198;-62
2022/07/11 04:04:56;;;;;;;2.80;1.30;;;;;;;16.35;85.24;94616.72;5033249;28;20198;-65
2022/07/11 04:07:22;;;;;;;2.20;1.45;;;;;;;16.28;85.41;94623.47;5015007;28;20210;-63
2022/07/11 04:09:47;;;;;;;1.42;1.33;;;;;;;16.16;85.82;94613.75;5032880;28;20635;-62
2022/07/11 04:12:13;;;;;;;2.72;1.33;;;;;;;16.12;86.34;94605.56;5032919;28;20236;-66
2022/07/11 04:14:38;;;;;;;3.63;1.95;;;;;;;16.21;86.61;94607.16;5032928;28;20189;-63
2022/07/11 04:17:04;;;;;;;4.13;2.05;;;;;;;16.27;86.72;94605.69;5033050;28;20285;-64
2022/07/11 04:19:29;;;;;;;1.83;1.45;;;;;;;16.24;87.59;94598.34;5015065;28;20340;-65
2022/07/11 04:21:55;;;;;;;7.20;1.95;;;;;;;16.15;88.35;94589.84;5032835;28;20249;-62
2022/07/11 04:24:21;;;;;;;3.70;1.98;;;;;;;16.22;88.80;94590.78;5032778;28;20668;-61
2022/07/11 04:26:47;;;;;;;1.63;1.52;;;;;;;16.15;89.45;94589.84;5032656;28;20253;-64
2022/07/11 04:29:12;;;;;;;4.15;1.85;;;;;;;16.07;89.67;94582.19;5032772;28;20293;-60
2022/07/11 04:31:37;;;;;;;3.70;1.42;;;;;;;16.10;90.24;94581.84;5032367;28;20218;-61
2022/07/11 04:34:03;;;;;;;2.67;1.58;;;;;;;16.20;89.79;94592.72;5032819;28;20648;-61
2022/07/11 04:36:28;;;;;;;1.88;1.63;;;;;;;16.20;90.50;94581.69;5032979;28;20217;-66
2022/07/11 04:38:54;;;;;;;1.92;1.83;;;;;;;16.27;90.92;94577.47;5032657;28;20183;-67
2022/07/11 04:41:20;;;;;;;1.58;1.48;;;;;;;16.32;89.92;94595.75;5014877;28;20218;-63
2022/07/11 04:43:45;;;;;;;3.70;1.80;;;;;;;16.32;88.96;94606.00;5031634;28;20190;-62
2022/07/11 04:46:11;;;;;;;2.17;1.67;;;;;;;16.33;88.80;94605.84;5032296;28;20268;-62
2022/07/11 04:48:39;;;;;;;4.35;2.40;;;;;;;16.30;88.73;94607.94;5032240;28;20234;-61
2022/07/11 04:51:08;;;;;;;4.80;2.30;;;;;;;16.36;88.76;94608.06;5032271;28;20233;-66
2022/07/11 04:53:34;;;;;;;7.55;2.45;;;;;;;16.40;87.96;94609.31;5032232;28;20267;-64
2022/07/11 04:55:59;;;;;;;3.72;1.55;;;;;;;16.50;88.05;94616.88;5032635;28;20274;-62
2022/07/11 04:58:25;;;;;;;6.15;1.98;;;;;;;16.56;87.96;94613.63;5032254;28;20676;-63
2022/07/11 05:00:51;;;;;;;2.28;1.40;;;;;;;16.66;88.12;94615.00;5014565;28;20281;-66
2022/07/11 05:03:18;;;;;;;3.25;1.77;;;;;;;16.57;86.84;94639.13;5014149;28;20206;-66
2022/07/11 05:05:44;;;;;;;3.65;1.90;;;;;;;16.58;87.82;94625.31;5014351;28;20698;-65
2022/07/11 05:08:09;;;;;;;2.63;2.05;;;;;;;16.53;87.36;94630.16;5031978;28;20221;-65
2022/07/11 05:10:36;;;;;;;2.03;1.80;;;;;;;16.50;88.10;94615.09;5031980;28;20274;-66
2022/07/11 05:13:05;;;;;;;2.00;1.80;;;;;;;16.59;87.97;94629.50;5031887;28;20284;-65
2022/07/11 05:15:30;;;;;;;2.58;1.88;;;;;;;16.52;88.27;94623.41;5032103;28;20221;-62
2022/07/11 05:17:56;;;;;;;2.20;1.85;;;;;;;16.56;88.57;94614.41;5014077;28;20206;-60
2022/07/11 05:20:22;;;;;;;3.92;1.98;;;;;;;16.63;88.40;94624.81;5014180;28;20226;-66
2022/07/11 05:22:47;;;;;;;3.05;1.60;;;;;;;16.52;88.66;94615.72;5031894;28;20225;-63
2022/07/11 05:25:13;;;;;;;6.75;2.55;;;;;;;16.48;89.26;94605.94;5031913;28;20241;-61
2022/07/11 05:27:38;;;;;;;4.20;2.35;;;;;;;16.68;97.00;94602.03;5031783;28;20556;-63
2022/07/11 05:30:04;;;;;;;3.33;2.10;;;;;;;16.70;89.48;94623.97;5031518;28;20186;-64
2022/07/11 05:32:30;;;;;;;5.68;2.20;;;;;;;16.77;88.68;94636.97;5031559;28;20641;-62
2022/07/11 05:35:01;;;;;;;2.25;2.10;;;;;;;16.66;86.72;94665.56;5031659;28;20631;-65
2022/07/11 05:37:28;;;;;;;5.57;2.30;;;;;;;16.70;86.84;94665.06;5030101;28;20221;-63
2022/07/11 05:39:53;;;;;;;3.58;2.10;;;;;;;16.57;86.65;94662.22;5030021;28;20265;-64
2022/07/11 05:42:18;;;;;;;4.55;1.77;;;;;;;16.60;84.94;94689.34;5031668;28;20795;-61
2022/07/11 05:44:44;;;;;;;6.35;2.28;;;;;;;16.60;84.03;94704.75;5013724;28;20269;-64
2022/07/11 05:47:10;;;;;;;1.40;1.30;;;;;;;16.58;81.95;94734.91;5031455;28;20210;-61
2022/07/11 05:49:35;;;;;;;2.65;1.83;;;;;;;16.67;81.95;94724.44;5031621;28;20228;-61
2022/07/11 05:52:01;;;;;;;1.92;1.30;;;;;;;16.75;82.06;94721.84;5031753;28;20691;-64
2022/07/11 05:54:28;;;;;;;1.88;1.20;;;;;;;16.73;78.28;94785.41;5031515;28;20182;-64
2022/07/11 05:56:54;;;;;;;2.17;1.45;;;;;;;16.86;79.01;94766.13;5035286;28;20224;-62
2022/07/11 05:59:20;;;;;;;3.40;1.30;;;;;;;16.87;73.70;94863.53;5035409;28;20186;-62
2022/07/11 06:01:46;;;;;;;4.03;1.33;;;;;;;16.92;70.79;94896.44;5035134;28;20734;-62
2022/07/11 06:04:12;;;;;;;1.17;1.08;;;;;;;16.97;70.05;94901.91;5035279;28;20239;-63
2022/07/11 06:06:37;;;;;;;5.15;0.77;;;;;;;17.08;68.08;94958.06;5035672;28;20225;-65
2022/07/11 06:09:03;;;;;;;3.42;1.38;;;;;;;17.24;68.32;94943.44;5035209;28;20730;-62
2022/07/11 06:11:29;;;;;;;1.33;0.90;;;;;;;17.12;65.28;94977.34;5035440;28;20210;-62
2022/07/11 06:13:55;;;;;;;1.45;0.70;;;;;;;17.02;65.23;94953.59;5017422;28;20243;-61
2022/07/11 06:16:20;;;;;;;1.63;1.08;;;;;;;17.01;63.10;94986.16;5035121;28;20210;-62
2022/07/11 06:18:46;;;;;;;1.40;1.08;;;;;;;16.98;63.19;94965.94;5035218;28;20189;-63
2022/07/11 06:21:11;;;;;;;1.30;0.88;;;;;;;17.02;63.38;94963.84;5034871;28;20206;-65
2022/07/11 06:23:37;;;;;;;4.43;1.00;;;;;;;17.16;64.27;94932.38;5035065;28;20539;-63
2022/07/11 06:26:04;;;;;;;1.70;0.93;;;;;;;17.23;62.56;94967.53;5035379;28;20614;-63
2022/07/11 06:28:29;;;;;;;1.17;0.85;;;;;;;17.25;62.03;94970.75;5034940;28;20344;-62
2022/07/11 06:30:55;;;;;;;1.85;1.20;;;;;;;17.28;62.30;94970.44;5035069;28;20699;-63
2022/07/11 06:33:21;;;;;;;3.92;1.20;;;;;;;17.39;61.92;94969.28;5034973;28;20348;-62
2022/07/11 06:35:48;;;;;;;1.63;1.08;;;;;;;17.32;61.15;94981.19;5034879;28;20198;-61
2022/07/11 06:38:14;;;;;;;1.35;0.70;;;;;;;17.29;60.38;94997.72;5034816;28;20209;-64
2022/07/11 06:40:47;;;;;;;2.92;1.17;;;;;;;17.28;60.00;94985.03;5016777;28;20280;-62
2022/07/11 06:43:13;;;;;;;2.25;0.90;;;;;;;17.35;60.56;94965.44;5016913;28;20237;-62
2022/07/11 06:45:38;;;;;;;1.20;0.88;;;;;;;17.41;60.19;94968.13;5034867;28;20187;-62
2022/07/11 06:48:04;;;;;;;2.00;0.70;;;;;;;17.58;59.89;94968.94;5034528;28;20218;-63
2022/07/11 06:50:30;;;;;;;1.20;1.10;;;;;;;17.63;59.82;94964.13;5044238;22;20217;-64
2022/07/11 06:52:56;;;;;;;1.70;0.90;;;;;;;17.58;59.00;94992.09;5054302;28;20222;-60
2022/07/11 06:55:21;;;;;;;1.80;1.20;;;;;;;18.26;70.00;94766.63;5054427;28;20192;-61
2022/07/11 06:57:47;;;;;;;2.00;1.10;;;;;;;18.62;60.78;95003.78;5054139;28;20209;-62
2022/07/11 07:00:13;;;;;;;2.20;1.48;;;;;;;18.74;71.83;94695.09;5054323;28;20193;-62
2022/07/11 07:02:39;;;;;;;2.35;0.90;;;;;;;18.78;58.99;94983.06;5054132;28;20217;-65
2022/07/11 07:05:05;;;;;;;2.88;1.00;;;;;;;18.82;56.14;94955.19;5054327;28;20264;-61
2022/07/11 07:07:31;;;;;;;2.28;1.08;;;;;;;19.06;58.41;94901.69;5053035;28;20300;-63
2022/07/11 07:09:57;;;;;;;3.17;1.60;;;;;;;19.38;56.16;94936.69;5053906;28;20289;-66
2022/07/11 07:12:23;;;;;;;2.35;1.08;;;;;;;19.27;55.12;94931.91;5053856;28;20220;-62
2022/07/11 07:14:49;;;;;;;5.07;1.20;;;;;;;19.20;54.00;94936.19;5053887;28;20189;-65
2022/07/11 07:17:14;;;;;;;2.10;1.08;;;;;;;19.22;54.94;94905.88;5053933;28;20236;-61
2022/07/11 07:19:40;;;;;;;1.35;0.90;;;;;;;19.02;53.58;94925.38;5053855;28;20185;-65
2022/07/11 07:22:05;;;;;;;1.23;0.93;;;;;;;19.14;60.64;94792.53;5053790;28;20241;-62
2022/07/11 07:24:32;;;;;;;1.80;1.25;;;;;;;19.39;58.62;94831.78;5053914;28;20181;-59
2022/07/11 07:26:58;;;;;;;4.57;1.10;;;;;;;19.74;61.29;94782.78;5054146;28;20197;-67
2022/07/11 07:29:25;;;;;;;1.05;0.90;;;;;;;20.12;56.26;94896.94;5042912;22;20304;-60
2022/07/11 07:31:52;;;;;;;1.98;1.00;;;;;;;19.99;55.86;94876.97;5033697;28;20218;-65
2022/07/11 07:34:18;;;;;;;1.48;0.80;;;;;;;20.00;58.76;94808.84;5034001;28;20198;-62
2022/07/11 07:36:44;;;;;;;1.10;0.82;;;;;;;20.03;58.01;94824.00;5033700;28;20210;-66
2022/07/11 07:39:10;;;;;;;4.07;1.38;;;;;;;20.27;55.01;94905.50;5033800;28;20213;-61
2022/07/11 07:41:35;;;;;;;1.45;1.00;;;;;;;19.87;53.85;94903.41;5033491;28;20297;-62
2022/07/11 07:44:01;;;;;;;3.95;1.10;;;;;;;19.88;53.74;94905.81;5033389;28;20580;-63
2022/07/11 07:46:27;;;;;;;4.65;1.00;;;;;;;19.98;56.06;94848.72;5033478;28;20619;-62
2022/07/11 07:48:53;;;;;;;4.30;1.10;;;;;;;19.99;56.13;94861.47;5033331;28;20242;-62
2022/07/11 07:51:18;;;;;;;3.25;0.90;;;;;;;19.44;54.14;94892.13;5015533;28;20224;-62
2022/07/11 07:53:43;;;;;;;1.85;0.85;;;;;;;19.55;54.26;94878.81;5033254;28;20264;-65
2022/07/11 07:56:09;;;;;;;0.98;0.80;;;;;;;20.10;56.88;94837.75;5033252;28;20224;-65
2022/07/11 07:58:34;;;;;;;2.10;1.00;;;;;;;19.42;53.59;94894.09;5033338;28;20277;-65
2022/07/11 08:03:44;;;;;;;3.53;1.63;;;;;;;19.98;55.29;94862.44;5032972;28;20675;-60
2022/07/11 08:06:09;;;;;;;9.30;1.58;;;;;;;19.99;53.95;94892.44;5015240;28;20198;-61
2022/07/11 08:08:34;;;;;;;3.40;1.27;;;;;;;19.85;52.96;94910.53;5015210;28;20637;-63
2022/07/11 08:11:02;;;;;;;3.78;1.10;;;;;;;20.09;56.92;94825.84;5032761;28;20186;-62
2022/07/11 08:13:27;;;;;;;1.80;0.98;;;;;;;20.37;56.56;94831.09;5015087;28;20221;-61
2022/07/11 08:15:53;;;;;;;3.88;1.23;;;;;;;20.49;55.09;94862.38;5014887;28;20218;-60
2022/07/11 08:18:18;;;;;;;3.72;1.00;;;;;;;20.17;53.65;94884.28;5032567;28;20208;-61
2022/07/11 08:20:44;;;;;;;7.53;0.95;;;;;;;19.93;53.17;94902.69;5032771;28;20182;-60
2022/07/11 08:23:09;;;;;;;3.47;0.70;;;;;;;20.10;57.43;94811.13;5032950;28;20570;-63
2022/07/11 08:25:35;;;;;;;2.28;0.93;;;;;;;20.01;52.83;94898.22;5033206;28;20194;-62
2022/07/11 08:28:00;;;;;;;6.22;0.93;;;;;;;19.95;56.02;94829.28;5032579;28;20218;-61
2022/07/11 08:30:26;;;;;;;2.05;1.02;;;;;;;19.89;53.90;94868.72;5033066;28;20201;-62
2022/07/11 08:32:52;;;;;;;1.38;0.75;;;;;;;20.10;56.07;94842.91;5032556;28;20228;-64
2022/07/11 08:35:17;;;;;;;5.05;1.23;;;;;;;20.01;52.20;94912.91;5032850;28;20263;-63
2022/07/11 08:37:43;;;;;;;3.65;1.13;;;;;;;19.73;51.19;94933.41;5032572;28;20239;-63
2022/07/11 08:40:10;;;;;;;1.20;0.95;;;;;;;19.94;53.37;94901.69;5032582;28;20328;-65
2022/07/11 08:42:40;;;;;;;2.55;0.93;;;;;;;19.78;53.64;94869.16;5014516;28;20210;-63
2022/07/11 08:45:07;;;;;;;2.75;0.93;;;;;;;19.73;51.04;94933.41;5032396;28;20256;-65
2022/07/11 08:47:35;;;;;;;1.67;0.80;;;;;;;19.96;54.80;94851.50;5032150;28;20644;-60
2022/07/11 08:50:08;;;;;;;1.63;0.80;;;;;;;19.69;51.26;94923.63;5032743;28;20205;-60
2022/07/11 08:52:34;;;;;;;0.73;0.73;;;;;;;19.94;50.48;94936.06;5051703;22;20768;-62
2022/07/11 08:54:59;;;;;;;0.90;0.90;;;;;;;19.94;50.71;94938.63;5052354;28;20189;-64
2022/07/11 08:57:25;;;;;;;2.45;1.00;;;;;;;19.59;50.19;94947.13;5052355;28;20283;-62
2022/07/11 08:59:57;;;;;;;5.10;1.00;;;;;;;19.78;53.63;94845.94;5052018;28;20211;-62
2022/07/11 09:02:24;;;;;;;1.45;0.77;;;;;;;19.82;50.80;94952.97;5052419;28;20205;-62
2022/07/11 09:04:49;;;;;;;1.80;0.90;;;;;;;19.46;48.00;94984.78;5052062;28;20239;-61
2022/07/11 09:07:15;;;;;;;2.10;1.15;;;;;;;19.49;48.07;94981.88;5052118;28;20217;-58
2022/07/11 09:09:41;;;;;;;1.48;1.20;;;;;;;19.85;50.33;94919.09;5052014;28;20228;-60
2022/07/11 09:12:16;;;;;;;2.45;1.08;;;;;;;20.14;50.02;94930.34;5034218;28;20721;-60
2022/07/11 09:14:49;;;;;;;2.28;1.17;;;;;;;20.02;48.79;94971.28;5052094;28;20220;-63
2022/07/11 09:17:14;;;;;;;2.08;1.15;;;;;;;20.18;48.24;94975.47;5033912;28;20240;-63
2022/07/11 09:19:40;;;;;;;1.45;0.82;;;;;;;20.18;47.25;95007.22;5034099;28;20193;-62
2022/07/11 09:27:43;;;;;;;0.80;0.68;;;;;;;19.70;47.00;94981.97;5052401;28;20605;-64
2022/07/11 09:30:20;;;;;;;2.50;0.75;;;;;;;19.85;48.43;94967.31;5051396;28;20177;-62
2022/07/11 09:32:59;;;;;;;1.38;0.85;;;;;;;19.88;47.90;94954.84;5052425;28;20208;-62
2022/07/11 09:35:38;;;;;;;1.17;1.08;;;;;;;19.99;47.98;94951.00;5051994;28;20174;-60
2022/07/11 09:38:08;;;;;;;1.92;0.88;;;;;;;20.50;48.32;94950.03;5051824;28;20254;-61
2022/07/11 09:40:35;;;;;;;1.70;0.90;;;;;;;20.40;46.65;94982.31;5051784;28;20204;-62
2022/07/11 09:43:00;;;;;;;1.30;1.02;;;;;;;20.51;47.22;94976.66;5051494;28;20217;-62
2022/07/11 09:45:28;;;;;;;4.53;0.80;;;;;;;20.64;47.04;94969.88;5033559;28;20264;-63
2022/07/11 09:47:56;;;;;;;1.27;1.10;;;;;;;20.97;46.84;94967.59;5051265;28;20204;-62
2022/07/11 09:50:26;;;;;;;3.55;0.80;;;;;;;21.23;47.78;94944.56;5051375;28;20268;-61
2022/07/11 09:53:09;;;;;;;0.77;0.77;;;;;;;20.88;47.50;94972.09;5052056;28;20280;-60
2022/07/11 09:55:40;;;;;;;1.83;0.60;;;;;;;20.70;46.14;94986.44;5051433;28;20192;-62
2022/07/11 09:58:07;;;;;;;3.05;0.85;;;;;;;20.62;46.12;94991.72;5051320;28;20702;-60
2022/07/11 10:00:35;;;;;;;1.85;0.65;;;;;;;20.73;48.41;94930.00;5051472;28;20586;-62
2022/07/11 10:03:00;;;;;;;0.80;0.75;;;;;;;21.07;47.84;94944.84;5033416;28;20224;-62
2022/07/11 10:05:26;;;;;;;4.82;1.10;;;;;;;20.73;43.58;95040.31;5033506;28;20178;-62
2022/07/11 10:07:52;;;;;;;1.77;0.88;;;;;;;20.30;44.09;95033.47;5051045;28;20213;-60
2022/07/11 10:10:18;;;;;;;3.42;0.90;;;;;;;20.40;44.69;94992.66;5051378;28;20240;-60
2022/07/11 10:12:46;;;;;;;1.88;0.82;;;;;;;20.77;45.46;94979.53;5051574;28;20296;-62
2022/07/11 10:15:15;;;;;;;2.22;0.93;;;;;;;20.81;45.81;94965.25;5051326;28;20185;-62
2022/07/11 10:18:03;;;;;;;4.40;0.80;;;;;;;21.41;46.45;94972.56;5033589;28;20220;-62
2022/07/11 10:20:53;;;;;;;1.83;0.70;;;;;;;21.32;46.07;94984.84;5051199;28;20186;-62
2022/07/11 10:23:31;;;;;;;2.05;0.80;;;;;;;21.66;46.45;94979.72;5051394;28;20210;-63
2022/07/11 10:26:01;;;;;;;2.88;0.82;;;;;;;21.71;45.65;94992.09;5051253;28;20189;-61
2022/07/11 10:28:37;;;;;;;1.13;0.60;;;;;;;22.03;47.06;94941.50;5051335;28;20202;-63
2022/07/11 10:31:04;;;;;;;1.85;0.80;;;;;;;21.69;44.56;95014.78;5051268;28;20490;-59
2022/07/11 10:33:30;;;;;;;2.63;0.77;;;;;;;21.94;46.70;94960.78;5051241;28;20265;-61
2022/07/11 10:35:58;;;;;;;2.45;0.80;;;;;;;21.82;45.65;94996.75;5050980;28;20555;-63
2022/07/11 10:38:24;;;;;;;0.60;0.60;;;;;;;21.67;44.40;95022.69;5051339;28;20188;-64
2022/07/11 10:40:57;;;;;;;1.42;0.80;;;;;;;21.55;43.84;95024.22;5051303;28;20679;-62
2022/07/11 10:43:22;;;;;;;2.13;1.08;;;;;;;21.60;44.43;95008.94;5053919;28;20190;-62
2022/07/11 10:46:06;;;;;;;0.82;0.70;;;;;;;21.54;43.45;95035.56;5054614;28;20200;-63
2022/07/11 10:48:35;;;;;;;2.72;0.98;;;;;;;21.85;43.07;95037.00;5054676;28;20262;-60
2022/07/11 10:51:03;;;;;;;3.35;1.10;;;;;;;21.93;44.80;94980.69;5054413;28;20197;-60
2022/07/11 10:53:33;;;;;;;4.45;1.10;;;;;;;21.85;43.77;95017.09;5054516;28;20181;-61
2022/07/11 10:56:15;;;;;;;3.03;1.00;;;;;;;21.97;44.64;94989.69;5054594;28;20189;-60
2022/07/11 10:58:43;;;;;;;2.47;0.90;;;;;;;21.67;43.62;95024.50;5036594;28;20239;-63
2022/07/11 11:01:10;;;;;;;2.25;0.60;;;;;;;21.74;43.48;95031.34;5054501;28;20197;-61
2022/07/11 11:03:36;;;;;;;1.63;0.90;;;;;;;21.80;44.07;95009.06;5054246;28;20199;-63
2022/07/11 11:06:01;;;;;;;1.17;0.75;;;;;;;22.09;43.29;95023.59;5054254;28;20185;-63
2022/07/11 11:08:35;;;;;;;1.05;0.70;;;;;;;21.77;42.62;95037.13;5054238;28;20209;-63
2022/07/11 11:11:19;;;;;;;0.88;0.80;;;;;;;22.21;44.34;94985.81;5054252;28;20267;-60
2022/07/11 11:13:45;;;;;;;0.60;0.60;;;;;;;22.56;44.19;95000.31;5054487;28;20217;-62
2022/07/11 11:16:24;;;;;;;0.85;0.70;;;;;;;22.15;41.08;95077.25;5054526;28;20279;-63
2022/07/11 11:18:50;;;;;;;1.48;0.82;;;;;;;22.47;42.27;95027.38;5036263;28;20498;-62
2022/07/11 11:21:18;;;;;;;3.22;1.00;;;;;;;22.16;42.24;95047.78;5054212;28;20270;-63
2022/07/11 11:24:06;;;;;;;1.42;0.82;;;;;;;22.20;43.21;95004.94;5053913;28;20194;-63
2022/07/11 11:26:52;;;;;;;1.50;0.88;;;;;;;21.77;41.12;95062.00;5053891;28;20209;-65
2022/07/11 11:29:26;;;;;;;2.60;0.98;;;;;;;21.84;41.02;95066.47;5053533;28;20228;-62
2022/07/11 11:31:59;;;;;;;0.80;0.70;;;;;;;22.04;40.32;95064.84;5053806;28;20216;-60
2022/07/11 11:34:25;;;;;;;0.75;0.75;;;;;;;22.65;40.99;95030.28;5053550;28;20197;-63
2022/07/11 11:36:59;;;;;;;1.10;0.60;;;;;;;22.71;41.08;95063.19;5053490;28;20209;-62
2022/07/11 11:39:27;;;;;;;2.45;0.80;;;;;;;22.65;41.71;95014.72;5053867;28;20650;-61
2022/07/11 11:41:53;;;;;;;3.05;0.55;;;;;;;22.59;41.46;95025.06;5053797;28;20813;-63